Time;durP1;ratioP1;P1;durP2;ratioP2;P2;SDS_P1;SDS_P2;PMS_P1;PMS_P2;Temp;Humidity;BMP_temperature;BMP_pressure;BME280_temperature;BME280_humidity;BME280_pressure;Samples;Min_cycle;Max_cycle;Signal;HPM_P1;HPM_P2
2023/07/25 00:02:12;;;;;;;11.73;4.63;;;;;;;;;;5048292;28;20323;-71
2023/07/25 00:04:37;;;;;;;9.63;3.97;;;;;;;;;;5048914;28;20020;-71
2023/07/25 00:07:02;;;;;;;8.67;3.50;;;;;;;;;;5049731;28;20412;-71
2023/07/25 00:09:27;;;;;;;13.03;4.40;;;;;;;;;;5047910;28;20029;-71
2023/07/25 00:11:52;;;;;;;9.30;3.67;;;;;;;;;;5049843;28;20252;-71
2023/07/25 00:14:18;;;;;;;16.23;4.93;;;;;;;;;;5048499;28;20037;-71
2023/07/25 00:16:43;;;;;;;11.97;3.80;;;;;;;;;;5048329;28;20033;-71
2023/07/25 00:19:08;;;;;;;14.13;4.60;;;;;;;;;;5048262;28;20036;-71
2023/07/25 00:21:33;;;;;;;12.23;4.30;;;;;;;;;;5048474;28;20507;-71
2023/07/25 00:23:58;;;;;;;11.70;4.15;;;;;;;;;;5049054;28;20263;-71
2023/07/25 00:26:23;;;;;;;11.43;3.90;;;;;;;;;;5049266;28;20426;-71
2023/07/25 00:28:49;;;;;;;7.60;3.40;;;;;;;;;;5047508;28;20021;-71
2023/07/25 00:31:14;;;;;;;10.33;3.67;;;;;;;;;;5048951;28;20021;-71
2023/07/25 00:33:39;;;;;;;11.40;3.40;;;;;;;;;;5048435;28;20283;-71
2023/07/25 00:36:04;;;;;;;5.73;3.03;;;;;;;;;;5049548;28;20489;-71
2023/07/25 00:38:29;;;;;;;9.60;3.30;;;;;;;;;;5048352;28;20025;-71
2023/07/25 00:40:54;;;;;;;10.63;3.33;;;;;;;;;;5049629;28;20021;-71
2023/07/25 00:43:20;;;;;;;10.20;3.47;;;;;;;;;;5047611;28;20021;-71
2023/07/25 00:45:45;;;;;;;8.07;3.30;;;;;;;;;;5047893;28;20032;-71
2023/07/25 00:48:10;;;;;;;7.50;4.23;;;;;;;;;;5051719;28;20755;-71
2023/07/25 00:50:35;;;;;;;10.95;3.97;;;;;;;;;;5052087;28;20098;-71
2023/07/25 00:53:01;;;;;;;12.77;3.55;;;;;;;;;;5052352;28;20067;-71
2023/07/25 00:55:27;;;;;;;10.48;2.78;;;;;;;;;;5052596;28;20048;-71
2023/07/25 00:57:52;;;;;;;9.63;3.40;;;;;;;;;;5053087;28;20021;-71
2023/07/25 01:00:17;;;;;;;13.95;2.80;;;;;;;;;;5051722;28;20029;-71
2023/07/25 01:02:42;;;;;;;7.33;3.23;;;;;;;;;;5048267;28;20032;-71
2023/07/25 01:05:08;;;;;;;6.93;2.83;;;;;;;;;;5052583;28;20025;-71
2023/07/25 01:07:34;;;;;;;10.43;3.28;;;;;;;;;;5052591;28;20091;-71
2023/07/25 01:09:59;;;;;;;5.47;2.60;;;;;;;;;;5052254;28;20507;-71
2023/07/25 01:12:25;;;;;;;7.17;2.70;;;;;;;;;;5051329;28;20036;-71
2023/07/25 01:14:50;;;;;;;6.67;3.00;;;;;;;;;;5050613;28;20350;-71
2023/07/25 01:17:17;;;;;;;6.30;2.93;;;;;;;;;;5049805;28;20267;-71
2023/07/25 01:19:43;;;;;;;7.18;2.95;;;;;;;;;;5033956;28;20267;-71
2023/07/25 01:22:09;;;;;;;9.93;2.63;;;;;;;;;;5052087;28;20404;-71
2023/07/25 01:24:35;;;;;;;5.80;2.60;;;;;;;;;;5052093;28;20025;-71
2023/07/25 01:27:00;;;;;;;5.85;2.70;;;;;;;;;;5052059;28;20013;-71
2023/07/25 01:29:25;;;;;;;7.18;3.20;;;;;;;;;;5050420;28;20111;-71
2023/07/25 01:31:51;;;;;;;5.53;2.40;;;;;;;;;;5051270;28;20025;-71
2023/07/25 01:34:16;;;;;;;10.18;2.95;;;;;;;;;;5052278;28;20620;-71
2023/07/25 01:36:41;;;;;;;8.33;2.40;;;;;;;;;;5051881;28;20093;-71
2023/07/25 01:39:07;;;;;;;4.93;2.67;;;;;;;;;;5052379;28;20765;-71
2023/07/25 01:41:32;;;;;;;6.50;3.20;;;;;;;;;;5051306;28;20021;-71
2023/07/25 01:43:57;;;;;;;13.37;3.43;;;;;;;;;;5030877;28;20116;-71
2023/07/25 01:46:22;;;;;;;11.77;3.47;;;;;;;;;;5051986;28;20251;-71
2023/07/25 01:48:48;;;;;;;9.30;3.53;;;;;;;;;;5049816;28;20124;-71
2023/07/25 01:51:13;;;;;;;11.30;3.60;;;;;;;;;;5051530;28;20275;-71
2023/07/25 01:53:38;;;;;;;7.17;3.03;;;;;;;;;;5049574;28;20631;-71
2023/07/25 01:56:03;;;;;;;12.20;3.93;;;;;;;;;;5049806;28;20029;-71
2023/07/25 01:58:28;;;;;;;9.77;3.73;;;;;;;;;;5047355;28;20269;-71
2023/07/25 02:00:59;;;;;;;9.20;4.07;;;;;;;;;;5049982;28;20017;-71
2023/07/25 02:03:25;;;;;;;11.48;4.15;;;;;;;;;;5051402;28;20256;-71
2023/07/25 02:05:50;;;;;;;10.63;5.13;;;;;;;;;;5051506;28;20036;-71
2023/07/25 02:08:15;;;;;;;19.77;4.50;;;;;;;;;;5050747;28;20516;-71
2023/07/25 02:10:41;;;;;;;11.75;4.72;;;;;;;;;;5050259;28;20307;-71
2023/07/25 02:13:06;;;;;;;13.38;5.50;;;;;;;;;;5032956;28;20017;-71
2023/07/25 02:15:31;;;;;;;13.60;4.50;;;;;;;;;;5032874;28;20143;-71
2023/07/25 02:17:56;;;;;;;12.13;5.72;;;;;;;;;;5032839;28;20025;-72
2023/07/25 02:20:25;;;;;;;15.63;4.97;;;;;;;;;;5051000;28;20036;-72
2023/07/25 02:22:51;;;;;;;17.95;6.80;;;;;;;;;;5051255;28;20370;-71
2023/07/25 02:25:16;;;;;;;12.95;5.45;;;;;;;;;;5050764;28;20108;-71
2023/07/25 02:27:41;;;;;;;12.37;5.83;;;;;;;;;;5031578;28;20060;-71
2023/07/25 02:30:06;;;;;;;16.87;5.67;;;;;;;;;;5051168;28;20247;-72
2023/07/25 02:32:31;;;;;;;11.85;5.45;;;;;;;;;;5051327;28;20260;-72
2023/07/25 02:34:57;;;;;;;11.77;5.37;;;;;;;;;;5049488;28;21916;-71
2023/07/25 02:37:22;;;;;;;12.68;5.35;;;;;;;;;;5050134;28;20260;-71
2023/07/25 02:39:47;;;;;;;17.40;6.47;;;;;;;;;;5051164;28;20075;-71
2023/07/25 02:42:12;;;;;;;10.68;4.72;;;;;;;;;;5047888;28;20283;-72
2023/07/25 02:44:37;;;;;;;11.40;5.17;;;;;;;;;;5047635;28;20025;-71
2023/07/25 02:47:03;;;;;;;10.77;4.83;;;;;;;;;;5044372;28;20624;-72
2023/07/25 02:49:28;;;;;;;11.50;5.15;;;;;;;;;;5050295;28;20275;-71
2023/07/25 02:51:53;;;;;;;15.00;5.67;;;;;;;;;;5050791;28;20099;-72
2023/07/25 02:54:18;;;;;;;17.50;5.90;;;;;;;;;;5048567;28;20062;-72
2023/07/25 02:56:43;;;;;;;17.00;5.33;;;;;;;;;;5048500;28;20275;-71
2023/07/25 02:59:08;;;;;;;19.30;5.50;;;;;;;;;;5050715;28;20585;-71
2023/07/25 03:01:34;;;;;;;13.87;5.23;;;;;;;;;;5050730;28;20336;-71
2023/07/25 03:03:59;;;;;;;11.57;5.22;;;;;;;;;;5046899;28;20259;-71
2023/07/25 03:06:24;;;;;;;15.83;4.80;;;;;;;;;;5050330;28;20021;-71
2023/07/25 03:08:49;;;;;;;12.30;5.80;;;;;;;;;;5049709;28;20284;-71
2023/07/25 03:11:15;;;;;;;17.58;5.40;;;;;;;;;;5046337;28;20291;-72
2023/07/25 03:13:40;;;;;;;14.93;5.73;;;;;;;;;;5047328;28;20029;-72
2023/07/25 03:16:05;;;;;;;14.45;5.25;;;;;;;;;;5048722;28;20271;-71
2023/07/25 03:18:30;;;;;;;14.15;5.60;;;;;;;;;;5049718;28;20504;-72
2023/07/25 03:20:55;;;;;;;10.47;5.30;;;;;;;;;;5050073;28;20025;-72
2023/07/25 03:23:21;;;;;;;13.50;5.10;;;;;;;;;;5048413;28;20786;-72
2023/07/25 03:25:46;;;;;;;14.13;5.63;;;;;;;;;;5048439;28;20255;-71
2023/07/25 03:28:11;;;;;;;11.80;5.70;;;;;;;;;;5049113;28;20017;-71
2023/07/25 03:30:36;;;;;;;18.05;6.15;;;;;;;;;;5049381;28;21068;-71
2023/07/25 03:33:01;;;;;;;15.63;6.27;;;;;;;;;;5048752;28;20581;-71
2023/07/25 03:35:26;;;;;;;13.97;5.87;;;;;;;;;;5048230;28;20267;-71
2023/07/25 03:37:52;;;;;;;12.60;5.23;;;;;;;;;;5049442;28;20333;-71
2023/07/25 03:40:17;;;;;;;18.37;6.43;;;;;;;;;;5048747;28;20659;-72
2023/07/25 03:42:42;;;;;;;15.02;6.32;;;;;;;;;;5048644;28;20287;-71
2023/07/25 03:45:07;;;;;;;12.03;6.10;;;;;;;;;;5049155;28;20056;-71
2023/07/25 03:47:33;;;;;;;14.90;5.55;;;;;;;;;;5049575;28;20310;-71
2023/07/25 03:49:58;;;;;;;14.90;5.97;;;;;;;;;;5050316;28;20039;-71
2023/07/25 03:52:23;;;;;;;11.10;5.00;;;;;;;;;;5046363;28;20302;-72
2023/07/25 03:54:48;;;;;;;13.63;5.40;;;;;;;;;;5048161;28;20760;-71
2023/07/25 03:57:13;;;;;;;14.50;5.47;;;;;;;;;;5049589;28;20266;-68
2023/07/25 03:59:38;;;;;;;9.47;4.60;;;;;;;;;;5049220;28;20640;-68
2023/07/25 04:02:04;;;;;;;9.73;5.17;;;;;;;;;;5048510;28;20278;-70
2023/07/25 04:04:29;;;;;;;11.23;5.07;;;;;;;;;;5049818;28;20256;-69
2023/07/25 04:06:54;;;;;;;21.23;5.73;;;;;;;;;;5046853;28;20017;-69
2023/07/25 04:09:19;;;;;;;14.27;5.37;;;;;;;;;;5049883;28;20256;-69
2023/07/25 04:11:44;;;;;;;10.17;4.80;;;;;;;;;;5050068;28;20335;-69
2023/07/25 04:14:10;;;;;;;14.23;5.00;;;;;;;;;;5046798;28;20816;-69
2023/07/25 04:16:35;;;;;;;12.93;4.90;;;;;;;;;;5049091;28;20262;-69
2023/07/25 04:19:00;;;;;;;11.57;5.20;;;;;;;;;;5049275;28;20053;-69
2023/07/25 04:21:25;;;;;;;16.92;4.90;;;;;;;;;;5050560;28;20640;-69
2023/07/25 04:23:50;;;;;;;13.33;4.70;;;;;;;;;;5051446;28;20389;-69
2023/07/25 04:26:16;;;;;;;12.33;5.47;;;;;;;;;;5053256;28;20301;-69
2023/07/25 04:28:41;;;;;;;8.20;4.88;;;;;;;;;;5052393;28;20272;-69
2023/07/25 04:31:06;;;;;;;15.10;6.17;;;;;;;;;;5052345;28;20063;-69
2023/07/25 04:33:31;;;;;;;13.43;5.20;;;;;;;;;;5050610;28;20713;-69
2023/07/25 04:35:56;;;;;;;12.17;5.10;;;;;;;;;;5052040;28;20275;-69
2023/07/25 04:38:21;;;;;;;12.50;5.40;;;;;;;;;;5053332;28;20268;-69
2023/07/25 04:40:47;;;;;;;11.77;4.73;;;;;;;;;;5053473;28;20286;-69
2023/07/25 04:43:12;;;;;;;16.10;5.70;;;;;;;;;;5049660;28;20329;-69
2023/07/25 04:45:37;;;;;;;10.87;5.43;;;;;;;;;;5049268;28;20240;-69
2023/07/25 04:48:02;;;;;;;26.35;5.97;;;;;;;;;;5051865;28;20275;-69
2023/07/25 04:50:28;;;;;;;14.05;5.50;;;;;;;;;;5052925;28;20050;-69
2023/07/25 04:52:53;;;;;;;9.27;5.10;;;;;;;;;;5033002;28;20145;-69
2023/07/25 04:55:18;;;;;;;11.70;4.53;;;;;;;;;;5048496;28;20368;-68
2023/07/25 04:57:43;;;;;;;13.70;5.57;;;;;;;;;;5052689;28;20766;-72
2023/07/25 05:00:09;;;;;;;11.33;5.40;;;;;;;;;;5051909;28;20287;-71
2023/07/25 05:02:34;;;;;;;7.35;4.32;;;;;;;;;;5052959;28;20277;-71
2023/07/25 05:05:00;;;;;;;12.70;5.15;;;;;;;;;;5048874;28;20039;-71
2023/07/25 05:07:25;;;;;;;14.70;4.77;;;;;;;;;;5048103;28;20027;-71
2023/07/25 05:09:50;;;;;;;17.20;4.80;;;;;;;;;;5050705;28;20661;-71
2023/07/25 05:12:15;;;;;;;15.07;4.73;;;;;;;;;;5049256;28;20760;-71
2023/07/25 05:14:40;;;;;;;9.35;4.55;;;;;;;;;;5049740;28;20374;-71
2023/07/25 05:17:06;;;;;;;8.47;3.93;;;;;;;;;;5048527;28;20036;-72
2023/07/25 05:19:31;;;;;;;16.33;4.73;;;;;;;;;;5048897;28;20305;-71
2023/07/25 05:21:56;;;;;;;10.77;4.57;;;;;;;;;;5049213;28;20649;-72
2023/07/25 05:24:23;;;;;;;10.87;4.23;;;;;;;;;;5046414;28;20116;-71
2023/07/25 05:26:48;;;;;;;12.98;4.57;;;;;;;;;;5049077;28;20275;-71
2023/07/25 05:29:13;;;;;;;17.70;4.47;;;;;;;;;;5050375;28;20032;-71
2023/07/25 05:31:39;;;;;;;10.67;4.60;;;;;;;;;;5050546;28;20309;-69
2023/07/25 05:34:04;;;;;;;12.23;4.23;;;;;;;;;;5046824;28;20267;-69
2023/07/25 05:36:29;;;;;;;10.57;4.90;;;;;;;;;;5047739;28;20291;-69
2023/07/25 05:38:54;;;;;;;10.40;4.40;;;;;;;;;;5049092;28;20267;-69
2023/07/25 05:41:19;;;;;;;14.93;4.00;;;;;;;;;;5048634;28;20795;-69
2023/07/25 05:43:45;;;;;;;8.30;4.00;;;;;;;;;;5047144;28;20362;-71
2023/07/25 05:46:10;;;;;;;13.68;4.03;;;;;;;;;;5047046;28;20045;-71
2023/07/25 05:48:35;;;;;;;8.50;3.70;;;;;;;;;;5050332;28;20013;-71
2023/07/25 05:51:00;;;;;;;11.20;3.45;;;;;;;;;;5051123;28;20358;-71
2023/07/25 05:53:26;;;;;;;12.87;3.73;;;;;;;;;;5048974;28;20538;-71
2023/07/25 05:55:51;;;;;;;7.80;3.40;;;;;;;;;;5050233;28;20267;-72
2023/07/25 05:58:16;;;;;;;13.32;3.20;;;;;;;;;;5049152;28;20020;-72
2023/07/25 06:00:42;;;;;;;16.20;3.92;;;;;;;;;;5051781;28;20016;-71
2023/07/25 06:03:10;;;;;;;6.53;2.75;;;;;;;;;;5048941;28;20020;-71
2023/07/25 06:05:35;;;;;;;10.00;3.42;;;;;;;;;;5049707;28;20021;-71
2023/07/25 06:08:00;;;;;;;10.53;3.20;;;;;;;;;;5050317;28;20024;-71
2023/07/25 06:10:26;;;;;;;12.23;3.13;;;;;;;;;;5042352;28;20264;-71
2023/07/25 06:12:51;;;;;;;11.17;3.53;;;;;;;;;;5042696;28;20866;-71
2023/07/25 06:15:16;;;;;;;9.13;3.30;;;;;;;;;;5023779;28;20271;-71
2023/07/25 06:17:41;;;;;;;10.05;3.28;;;;;;;;;;5048624;28;20290;-71
2023/07/25 06:20:07;;;;;;;12.57;3.30;;;;;;;;;;5043027;28;20025;-71
2023/07/25 06:22:34;;;;;;;4.75;3.00;;;;;;;;;;5045776;28;20326;-72
2023/07/25 06:25:00;;;;;;;10.80;2.53;;;;;;;;;;5047433;28;20028;-72
2023/07/25 06:27:25;;;;;;;15.40;3.50;;;;;;;;;;5047575;28;20009;-71
2023/07/25 06:29:50;;;;;;;14.47;3.13;;;;;;;;;;5049675;28;20028;-71
2023/07/25 06:32:15;;;;;;;6.90;3.23;;;;;;;;;;5048478;28;20683;-71
2023/07/25 06:34:40;;;;;;;7.73;2.90;;;;;;;;;;5032205;28;20282;-71
2023/07/25 06:37:06;;;;;;;6.00;2.40;;;;;;;;;;5050066;28;20271;-71
2023/07/25 06:39:31;;;;;;;13.95;2.78;;;;;;;;;;5048490;28;20670;-71
2023/07/25 06:41:56;;;;;;;8.77;3.63;;;;;;;;;;5027715;28;20440;-71
2023/07/25 06:44:21;;;;;;;7.75;3.00;;;;;;;;;;5049782;28;20009;-72
2023/07/25 06:46:47;;;;;;;15.93;2.65;;;;;;;;;;5049750;28;20025;-72
2023/07/25 06:49:12;;;;;;;5.40;2.20;;;;;;;;;;5049605;28;20051;-71
2023/07/25 06:51:37;;;;;;;8.55;2.85;;;;;;;;;;5031854;28;20264;-71
2023/07/25 06:54:02;;;;;;;9.45;2.30;;;;;;;;;;5046782;28;20021;-71
2023/07/25 06:56:27;;;;;;;9.48;2.80;;;;;;;;;;5044008;28;20028;-72
2023/07/25 06:58:53;;;;;;;6.97;2.50;;;;;;;;;;5043664;28;20029;-71
2023/07/25 07:01:18;;;;;;;7.57;2.37;;;;;;;;;;5046454;28;20309;-71
2023/07/25 07:03:43;;;;;;;9.43;2.55;;;;;;;;;;5048171;28;20609;-71
2023/07/25 07:06:08;;;;;;;12.33;2.40;;;;;;;;;;5049169;28;20033;-69
2023/07/25 07:08:34;;;;;;;10.55;2.30;;;;;;;;;;5049812;28;20282;-70
2023/07/25 07:10:59;;;;;;;12.93;3.63;;;;;;;;;;5046235;28;20025;-71
2023/07/25 07:13:24;;;;;;;7.53;2.20;;;;;;;;;;5046431;28;20021;-71
2023/07/25 07:15:50;;;;;;;4.53;1.90;;;;;;;;;;5045951;28;20292;-72
2023/07/25 07:18:15;;;;;;;11.73;2.67;;;;;;;;;;5044224;28;20024;-71
2023/07/25 07:20:44;;;;;;;6.78;1.83;;;;;;;;;;5046838;28;20488;-71
2023/07/25 07:23:09;;;;;;;9.23;2.13;;;;;;;;;;5050029;28;20033;-71
2023/07/25 07:25:36;;;;;;;11.00;2.13;;;;;;;;;;5047108;28;20040;-71
2023/07/25 07:28:02;;;;;;;6.18;2.35;;;;;;;;;;5049354;28;20272;-71
2023/07/25 07:30:27;;;;;;;7.32;2.28;;;;;;;;;;5048393;28;20013;-72
2023/07/25 07:32:53;;;;;;;11.77;1.63;;;;;;;;;;5049160;28;20090;-72
2023/07/25 07:35:19;;;;;;;8.45;1.65;;;;;;;;;;5048953;28;20329;-72
2023/07/25 07:37:44;;;;;;;10.00;1.97;;;;;;;;;;5047040;28;20028;-72
2023/07/25 07:40:09;;;;;;;9.48;1.83;;;;;;;;;;5048767;28;20348;-72
2023/07/25 07:42:34;;;;;;;7.15;1.85;;;;;;;;;;5049864;28;20048;-72
2023/07/25 07:45:00;;;;;;;10.57;1.90;;;;;;;;;;5046866;28;20039;-72
2023/07/25 07:47:25;;;;;;;7.90;1.60;;;;;;;;;;5048986;28;20301;-71
2023/07/25 07:49:50;;;;;;;8.17;1.73;;;;;;;;;;5049858;28;20036;-71
2023/07/25 07:52:15;;;;;;;11.63;1.53;;;;;;;;;;5050092;28;20283;-71
2023/07/25 07:54:40;;;;;;;12.70;1.63;;;;;;;;;;5048146;28;20416;-71
2023/07/25 07:57:06;;;;;;;6.53;2.60;;;;;;;;;;5049673;28;20029;-71
2023/07/25 07:59:31;;;;;;;10.03;1.70;;;;;;;;;;5052014;28;20275;-72
2023/07/25 08:01:56;;;;;;;4.72;1.70;;;;;;;;;;5052559;28;20279;-72
2023/07/25 08:04:21;;;;;;;11.75;1.88;;;;;;;;;;5051805;28;20025;-72
2023/07/25 08:06:47;;;;;;;8.70;1.67;;;;;;;;;;5048532;28;20025;-72
2023/07/25 08:09:12;;;;;;;8.98;2.42;;;;;;;;;;5051525;28;20267;-72
2023/07/25 08:11:37;;;;;;;8.63;2.08;;;;;;;;;;5051977;28;20650;-72
2023/07/25 08:14:02;;;;;;;5.17;3.03;;;;;;;;;;5052902;28;20025;-72
2023/07/25 08:16:28;;;;;;;4.18;1.50;;;;;;;;;;5051964;28;20305;-72
2023/07/25 08:18:53;;;;;;;11.27;1.73;;;;;;;;;;5048755;28;20036;-72
2023/07/25 08:21:18;;;;;;;6.73;1.67;;;;;;;;;;5048897;28;20287;-72
2023/07/25 08:23:43;;;;;;;9.17;1.93;;;;;;;;;;5051835;28;20271;-72
2023/07/25 08:26:08;;;;;;;5.93;2.17;;;;;;;;;;5052260;28;20309;-72
2023/07/25 08:28:34;;;;;;;6.33;2.10;;;;;;;;;;5052636;28;20025;-72
2023/07/25 08:31:00;;;;;;;10.73;1.63;;;;;;;;;;5052653;28;20275;-72
2023/07/25 08:33:26;;;;;;;6.72;1.80;;;;;;;;;;5050686;28;20051;-72
2023/07/25 08:35:53;;;;;;;5.40;1.60;;;;;;;;;;5050925;28;20033;-72
2023/07/25 08:38:18;;;;;;;4.13;1.60;;;;;;;;;;5049910;28;20104;-72
2023/07/25 08:40:44;;;;;;;10.90;1.87;;;;;;;;;;5049638;28;20614;-72
2023/07/25 08:43:11;;;;;;;5.80;1.90;;;;;;;;;;5049463;28;20291;-72
2023/07/25 08:45:37;;;;;;;4.75;1.58;;;;;;;;;;5052712;28;20009;-72
2023/07/25 08:48:04;;;;;;;9.07;1.70;;;;;;;;;;5052647;28;20020;-72
2023/07/25 08:50:29;;;;;;;8.70;2.00;;;;;;;;;;5051615;28;20104;-72
2023/07/25 08:52:56;;;;;;;7.07;2.20;;;;;;;;;;5051992;28;20096;-72
2023/07/25 08:55:22;;;;;;;5.82;1.70;;;;;;;;;;5050718;28;20047;-72
2023/07/25 08:57:48;;;;;;;5.88;1.50;;;;;;;;;;5050649;28;20517;-72
2023/07/25 09:00:14;;;;;;;7.45;2.30;;;;;;;;;;5047619;28;20510;-72
2023/07/25 09:02:39;;;;;;;7.10;1.80;;;;;;;;;;5052508;28;20031;-72
2023/07/25 09:05:05;;;;;;;5.90;1.80;;;;;;;;;;5050388;28;20040;-72
2023/07/25 09:07:30;;;;;;;9.73;1.98;;;;;;;;;;5046630;28;20350;-72
2023/07/25 09:09:55;;;;;;;7.88;1.90;;;;;;;;;;5048550;28;20423;-72
2023/07/25 09:12:20;;;;;;;8.93;2.95;;;;;;;;;;5049535;28;20047;-72
2023/07/25 09:14:46;;;;;;;7.43;1.83;;;;;;;;;;5051948;28;20017;-72
2023/07/25 09:17:11;;;;;;;5.40;2.20;;;;;;;;;;5047088;28;20025;-72
2023/07/25 09:19:36;;;;;;;8.43;2.22;;;;;;;;;;5047597;28;20150;-72
2023/07/25 09:22:02;;;;;;;7.63;2.13;;;;;;;;;;5044711;28;20025;-72
2023/07/25 09:24:36;;;;;;;8.50;2.22;;;;;;;;;;5048000;28;20462;-72
2023/07/25 09:27:02;;;;;;;16.38;2.38;;;;;;;;;;5047693;28;20039;-72
2023/07/25 09:29:27;;;;;;;9.38;2.20;;;;;;;;;;5047734;28;20104;-72
2023/07/25 09:31:53;;;;;;;7.80;2.00;;;;;;;;;;5047451;28;20032;-72
2023/07/25 09:34:22;;;;;;;12.73;4.18;;;;;;;;;;5048427;28;20037;-72
2023/07/25 09:36:48;;;;;;;13.82;2.40;;;;;;;;;;5048942;28;20037;-72
2023/07/25 09:39:13;;;;;;;5.38;1.67;;;;;;;;;;5045211;28;20146;-72
2023/07/25 09:41:39;;;;;;;5.50;1.70;;;;;;;;;;5049815;28;20109;-72
2023/07/25 09:44:06;;;;;;;10.02;2.17;;;;;;;;;;5050325;28;20044;-73
2023/07/25 09:46:32;;;;;;;10.43;2.03;;;;;;;;;;5051139;28;20024;-72
2023/07/25 09:48:57;;;;;;;5.25;1.75;;;;;;;;;;5051882;28;20028;-72
2023/07/25 09:51:22;;;;;;;8.50;2.42;;;;;;;;;;5049534;28;20071;-72
2023/07/25 09:53:51;;;;;;;6.70;1.80;;;;;;;;;;5048775;28;20025;-70
2023/07/25 09:56:16;;;;;;;8.07;2.58;;;;;;;;;;5045586;28;20429;-71
2023/07/25 09:58:42;;;;;;;7.15;2.00;;;;;;;;;;5050112;28;20033;-71
2023/07/25 10:01:08;;;;;;;9.67;2.63;;;;;;;;;;5049943;28;20025;-71
2023/07/25 10:03:34;;;;;;;4.60;1.42;;;;;;;;;;5048525;28;20787;-71
2023/07/25 10:06:00;;;;;;;6.28;2.10;;;;;;;;;;5045684;28;20078;-71
2023/07/25 10:08:25;;;;;;;10.15;1.75;;;;;;;;;;5050889;28;20092;-71
2023/07/25 10:10:51;;;;;;;13.10;1.42;;;;;;;;;;5048128;28;20025;-71
2023/07/25 10:13:16;;;;;;;5.13;1.50;;;;;;;;;;5049844;28;20078;-71
2023/07/25 10:15:42;;;;;;;6.57;1.65;;;;;;;;;;5030186;28;20428;-71
2023/07/25 10:18:19;;;;;;;5.35;1.40;;;;;;;;;;5047825;28;20029;-71
2023/07/25 10:20:44;;;;;;;7.00;2.67;;;;;;;;;;5047454;28;20028;-70
2023/07/25 10:23:11;;;;;;;6.55;1.40;;;;;;;;;;5050015;28;20047;-71
2023/07/25 10:25:36;;;;;;;8.05;1.40;;;;;;;;;;5047388;28;20108;-71
2023/07/25 10:28:02;;;;;;;8.93;1.85;;;;;;;;;;5047061;28;20009;-71
2023/07/25 10:30:28;;;;;;;8.55;1.80;;;;;;;;;;5049322;28;20028;-71
2023/07/25 10:32:56;;;;;;;7.32;1.83;;;;;;;;;;5047172;28;20389;-71
2023/07/25 10:35:40;;;;;;;4.75;1.20;;;;;;;;;;5049016;28;20017;-71
2023/07/25 10:38:13;;;;;;;9.52;1.63;;;;;;;;;;5048093;28;20025;-71
2023/07/25 10:40:49;;;;;;;6.70;1.27;;;;;;;;;;5046109;28;20028;-71
2023/07/25 10:43:15;;;;;;;8.13;1.30;;;;;;;;;;5048233;28;20049;-71
2023/07/25 10:45:46;;;;;;;9.13;1.50;;;;;;;;;;5047739;28;20072;-71
2023/07/25 10:48:30;;;;;;;7.93;1.13;;;;;;;;;;5049898;28;20352;-71
2023/07/25 10:50:56;;;;;;;6.07;1.30;;;;;;;;;;5045530;28;20025;-71
2023/07/25 10:53:22;;;;;;;5.95;1.52;;;;;;;;;;5048634;28;20086;-70
2023/07/25 10:56:03;;;;;;;3.60;1.17;;;;;;;;;;5046653;28;20032;-71
2023/07/25 10:58:28;;;;;;;8.07;1.48;;;;;;;;;;5048146;28;20036;-70
2023/07/25 11:00:54;;;;;;;4.75;1.30;;;;;;;;;;5049445;28;20029;-70
2023/07/25 11:03:26;;;;;;;3.20;1.30;;;;;;;;;;5049791;28;20036;-70
2023/07/25 11:05:51;;;;;;;5.78;1.55;;;;;;;;;;5048711;28;20158;-70
2023/07/25 11:08:17;;;;;;;8.53;1.50;;;;;;;;;;5048830;28;20091;-70
2023/07/25 11:10:42;;;;;;;2.55;0.98;;;;;;;;;;5046808;28;20682;-70
2023/07/25 11:13:08;;;;;;;6.90;2.67;;;;;;;;;;5046548;28;20028;-70
2023/07/25 11:15:33;;;;;;;5.57;1.35;;;;;;;;;;5046790;28;20338;-71
2023/07/25 11:17:58;;;;;;;6.57;1.95;;;;;;;;;;5050192;28;20058;-71
2023/07/25 11:20:23;;;;;;;5.35;1.92;;;;;;;;;;5045037;28;20020;-70
2023/07/25 11:22:50;;;;;;;7.03;1.67;;;;;;;;;;5031848;28;20035;-70
2023/07/25 11:25:15;;;;;;;7.28;2.65;;;;;;;;;;5045962;28;20021;-72
2023/07/25 11:27:41;;;;;;;6.03;1.90;;;;;;;;;;5047884;28;20029;-71
2023/07/25 11:30:11;;;;;;;8.98;2.30;;;;;;;;;;5047943;28;20646;-71
2023/07/25 11:32:36;;;;;;;7.63;2.25;;;;;;;;;;5046081;28;20506;-72
2023/07/25 11:35:01;;;;;;;11.70;2.72;;;;;;;;;;5048881;28;20040;-72
2023/07/25 11:37:27;;;;;;;9.82;2.47;;;;;;;;;;5048010;28;20029;-71
2023/07/25 11:39:52;;;;;;;3.42;1.85;;;;;;;;;;5046269;28;20025;-71
2023/07/25 11:42:18;;;;;;;5.30;2.30;;;;;;;;;;5044822;28;20497;-71
2023/07/25 11:44:44;;;;;;;5.10;2.22;;;;;;;;;;5045772;28;20248;-71
2023/07/25 11:47:10;;;;;;;7.05;2.35;;;;;;;;;;5046444;28;20047;-71
2023/07/25 11:49:35;;;;;;;5.32;2.50;;;;;;;;;;5049047;28;20980;-71
2023/07/25 11:52:01;;;;;;;8.05;2.75;;;;;;;;;;5047332;28;20028;-71
2023/07/25 11:54:27;;;;;;;10.80;2.45;;;;;;;;;;5048200;28;20020;-71
2023/07/25 11:56:52;;;;;;;10.52;2.47;;;;;;;;;;5045392;28;20021;-71
2023/07/25 11:59:17;;;;;;;6.18;2.20;;;;;;;;;;5048668;28;20106;-71
2023/07/25 12:01:42;;;;;;;6.03;2.47;;;;;;;;;;5049853;28;20063;-72
2023/07/25 12:04:15;;;;;;;11.70;2.33;;;;;;;;;;5045799;28;20686;-71
2023/07/25 12:06:41;;;;;;;8.43;2.83;;;;;;;;;;5046162;28;20271;-72
2023/07/25 12:09:06;;;;;;;12.57;2.70;;;;;;;;;;5047612;28;20024;-72
2023/07/25 12:11:39;;;;;;;11.27;2.88;;;;;;;;;;5046735;28;20025;-72
2023/07/25 12:14:08;;;;;;;6.22;2.60;;;;;;;;;;5046560;28;20527;-72
2023/07/25 12:16:35;;;;;;;9.48;2.58;;;;;;;;;;5047149;28;20040;-72
2023/07/25 12:19:01;;;;;;;10.95;3.00;;;;;;;;;;5046233;28;20489;-72
2023/07/25 12:21:31;;;;;;;6.53;2.50;;;;;;;;;;5047346;28;20040;-72
2023/07/25 12:23:57;;;;;;;7.43;2.80;;;;;;;;;;5047107;28;20021;-72
2023/07/25 12:26:22;;;;;;;8.98;2.60;;;;;;;;;;5046461;28;20033;-72
2023/07/25 12:28:48;;;;;;;23.00;4.20;;;;;;;;;;5045147;28;20021;-72
2023/07/25 12:31:14;;;;;;;10.15;3.17;;;;;;;;;;5046153;28;20020;-72
2023/07/25 12:33:41;;;;;;;6.63;2.83;;;;;;;;;;5048766;28;20094;-72
2023/07/25 12:36:06;;;;;;;11.85;3.38;;;;;;;;;;5046869;28;20021;-71
2023/07/25 12:38:31;;;;;;;4.97;2.57;;;;;;;;;;5044642;28;20021;-72
2023/07/25 12:40:56;;;;;;;11.17;2.90;;;;;;;;;;5045601;28;20341;-72
2023/07/25 12:43:21;;;;;;;11.05;2.65;;;;;;;;;;5051604;28;20702;-72
2023/07/25 12:45:47;;;;;;;7.10;2.63;;;;;;;;;;5050333;28;20453;-73
2023/07/25 12:48:12;;;;;;;4.95;1.90;;;;;;;;;;5052905;28;20499;-73
2023/07/25 12:50:39;;;;;;;8.90;2.53;;;;;;;;;;5051986;28;20378;-73
2023/07/25 12:53:04;;;;;;;7.45;2.50;;;;;;;;;;5047079;28;20470;-73
2023/07/25 12:55:29;;;;;;;11.40;2.85;;;;;;;;;;5049879;28;20033;-73
2023/07/25 12:57:54;;;;;;;13.50;3.03;;;;;;;;;;5052023;28;20029;-73
2023/07/25 13:00:20;;;;;;;12.13;3.63;;;;;;;;;;5048061;28;20267;-73
2023/07/25 13:02:45;;;;;;;8.32;2.80;;;;;;;;;;5049014;28;20980;-73
2023/07/25 13:05:10;;;;;;;8.60;2.50;;;;;;;;;;5052745;28;20108;-73
2023/07/25 13:07:35;;;;;;;11.70;2.20;;;;;;;;;;5049545;28;20470;-73
2023/07/25 13:10:02;;;;;;;5.80;3.23;;;;;;;;;;5051908;28;20412;-73
2023/07/25 13:12:27;;;;;;;15.23;3.60;;;;;;;;;;5050342;28;20017;-73
2023/07/25 13:14:53;;;;;;;11.25;4.07;;;;;;;;;;5049219;28;20131;-73
2023/07/25 13:17:18;;;;;;;8.03;4.27;;;;;;;;;;5049105;28;20044;-73
2023/07/25 13:19:43;;;;;;;8.75;3.30;;;;;;;;;;5049952;28;20309;-73
2023/07/25 13:22:08;;;;;;;9.33;3.37;;;;;;;;;;5048959;28;20021;-73
2023/07/25 13:24:33;;;;;;;11.67;3.10;;;;;;;;;;5051824;28;20275;-73
2023/07/25 13:26:58;;;;;;;9.27;3.50;;;;;;;;;;5049460;28;20652;-73
2023/07/25 13:29:24;;;;;;;5.17;2.00;;;;;;;;;;5051207;28;20354;-73
2023/07/25 13:31:49;;;;;;;5.35;2.63;;;;;;;;;;5050532;28;20283;-73
2023/07/25 13:34:14;;;;;;;8.80;3.50;;;;;;;;;;5052485;28;20040;-73
2023/07/25 13:36:39;;;;;;;10.30;3.30;;;;;;;;;;5050137;28;20362;-73
2023/07/25 13:39:07;;;;;;;9.20;3.77;;;;;;;;;;5050764;28;20029;-73
2023/07/25 13:41:33;;;;;;;9.50;3.80;;;;;;;;;;5050251;28;20306;-73
2023/07/25 13:43:58;;;;;;;5.90;3.33;;;;;;;;;;5051919;28;20017;-73
2023/07/25 13:46:23;;;;;;;9.67;3.90;;;;;;;;;;5050319;28;20422;-73
2023/07/25 13:48:48;;;;;;;19.70;5.13;;;;;;;;;;5051992;28;20770;-73
2023/07/25 13:51:14;;;;;;;7.70;3.88;;;;;;;;;;5050198;28;20083;-73
2023/07/25 13:53:39;;;;;;;8.75;3.42;;;;;;;;;;5049412;28;20013;-73
2023/07/25 13:56:04;;;;;;;12.70;4.25;;;;;;;;;;5046031;28;20095;-73
2023/07/25 13:58:29;;;;;;;8.10;2.95;;;;;;;;;;5049738;28;20028;-73
2023/07/25 14:00:55;;;;;;;14.48;3.40;;;;;;;;;;5050781;28;20478;-73
2023/07/25 14:03:20;;;;;;;6.88;1.80;;;;;;;;;;5050872;28;20029;-73
2023/07/25 14:05:45;;;;;;;5.43;1.48;;;;;;;;;;5051595;28;20489;-73
2023/07/25 14:08:10;;;;;;;9.83;2.37;;;;;;;;;;5050798;28;20044;-72
2023/07/25 14:10:36;;;;;;;8.25;1.98;;;;;;;;;;5049850;28;20021;-72
2023/07/25 14:13:01;;;;;;;7.78;2.30;;;;;;;;;;5044450;28;20021;-72
2023/07/25 14:15:26;;;;;;;7.57;2.20;;;;;;;;;;5047362;28;20100;-73
2023/07/25 14:17:51;;;;;;;13.63;2.10;;;;;;;;;;5040457;28;20289;-73
2023/07/25 14:20:17;;;;;;;16.13;2.45;;;;;;;;;;5032964;28;20272;-73
2023/07/25 14:22:42;;;;;;;5.18;1.60;;;;;;;;;;5044194;28;20052;-74
2023/07/25 14:25:07;;;;;;;9.57;1.60;;;;;;;;;;5046639;28;20462;-72
2023/07/25 14:27:33;;;;;;;9.82;1.48;;;;;;;;;;5047926;28;20125;-72